Aviation Digital Data Service (ADDS)

Output produced by METARs form (1116 UTC 24 October 2014)
found at http://aviationweather.gov/adds/metars/
 
KPHL 240903Z 2409/2512 32010KT P6SM FEW025 BKN040 
     TEMPO 2409/2411 BKN025 
     FM241400 32014G24KT P6SM FEW025 BKN050 
     FM242300 30008KT P6SM BKN200